Time;durP1;ratioP1;P1;durP2;ratioP2;P2;SDS_P1;SDS_P2;PMS_P1;PMS_P2;Temp;Humidity;BMP_temperature;BMP_pressure;BME280_temperature;BME280_humidity;BME280_pressure;Samples;Min_cycle;Max_cycle;Signal;HPM_P1;HPM_P2
2024/01/21 00:01:11;;;;;;;9.07;6.18;;;1.30;93.40;;;;;;5071426;28;20394;-93
2024/01/21 00:03:37;;;;;;;10.45;7.20;;;1.20;92.20;;;;;;5070571;28;20432;-93
2024/01/21 00:06:03;;;;;;;8.93;6.05;;;1.20;93.90;;;;;;5071311;28;20394;-92
2024/01/21 00:08:28;;;;;;;9.18;6.55;;;1.50;92.30;;;;;;5071133;28;20436;-94
2024/01/21 00:10:54;;;;;;;7.77;5.90;;;1.20;92.80;;;;;;5070478;28;20402;-92
2024/01/21 00:13:20;;;;;;;8.13;5.83;;;1.20;93.60;;;;;;5071323;28;20489;-92
2024/01/21 00:15:45;;;;;;;8.45;6.18;;;1.70;94.80;;;;;;5070561;28;20469;-93
2024/01/21 00:18:11;;;;;;;8.05;6.18;;;1.00;93.50;;;;;;5071400;28;20429;-93
2024/01/21 00:20:37;;;;;;;9.02;6.53;;;1.30;93.40;;;;;;5070295;28;20401;-94
2024/01/21 00:23:02;;;;;;;9.57;6.13;;;1.10;95.30;;;;;;5070802;28;20445;-93
2024/01/21 00:25:28;;;;;;;9.60;6.47;;;1.00;95.70;;;;;;5087308;28;20410;-93
2024/01/21 00:27:54;;;;;;;9.68;6.63;;;1.00;94.20;;;;;;5070691;28;20425;-92
2024/01/21 00:30:19;;;;;;;9.60;6.40;;;1.20;95.70;;;;;;5071235;28;20459;-95
2024/01/21 00:32:45;;;;;;;9.77;6.90;;;1.10;94.20;;;;;;5070055;28;20410;-93
2024/01/21 00:35:11;;;;;;;10.10;7.40;;;1.10;94.40;;;;;;5088093;28;20410;-92
2024/01/21 00:37:37;;;;;;;9.32;7.43;;;1.00;95.20;;;;;;5070114;28;20408;-93
2024/01/21 00:40:04;;;;;;;9.73;7.43;;;1.00;96.20;;;;;;5070764;28;20402;-92
2024/01/21 00:42:30;;;;;;;9.98;7.55;;;1.00;96.70;;;;;;5086622;28;20402;-93
2024/01/21 00:44:56;;;;;;;9.95;7.53;;;1.00;96.80;;;;;;5070297;28;20426;-92
2024/01/21 00:47:21;;;;;;;11.70;7.95;;;0.90;97.70;;;;;;5070503;28;20489;-94
2024/01/21 00:49:47;;;;;;;10.63;7.70;;;0.90;98.30;;;;;;5069685;28;20442;-94
2024/01/21 00:52:13;;;;;;;10.13;7.70;;;0.90;99.10;;;;;;5070813;28;20410;-93
2024/01/21 00:54:39;;;;;;;10.80;8.40;;;0.70;98.00;;;;;;5069655;28;20488;-93
2024/01/21 00:57:04;;;;;;;11.10;8.10;;;0.70;99.20;;;;;;5070677;28;20904;-93
2024/01/21 00:59:30;;;;;;;10.95;7.88;;;1.10;99.90;;;;;;5069589;28;20468;-93
2024/01/21 01:01:56;;;;;;;10.47;7.70;;;0.90;99.50;;;;;;5070324;28;20402;-95
2024/01/21 01:04:21;;;;;;;12.33;7.87;;;0.80;99.50;;;;;;5086402;28;20520;-88
2024/01/21 01:06:47;;;;;;;10.88;8.18;;;1.00;99.60;;;;;;5069668;28;20418;-94
2024/01/21 01:09:13;;;;;;;9.82;7.53;;;0.90;99.10;;;;;;5070206;28;20406;-93
2024/01/21 01:11:39;;;;;;;11.18;8.05;;;0.90;99.70;;;;;;5069388;28;20485;-90
2024/01/21 01:14:04;;;;;;;9.68;7.72;;;0.90;99.50;;;;;;5070425;28;20452;-91
2024/01/21 01:16:30;;;;;;;9.83;7.00;;;1.20;99.00;;;;;;5069075;28;20405;-94
2024/01/21 01:18:56;;;;;;;10.33;6.83;;;0.90;98.70;;;;;;5070155;28;20478;-92
2024/01/21 01:21:21;;;;;;;10.55;6.88;;;0.90;97.50;;;;;;5069372;28;20425;-94
2024/01/21 01:23:47;;;;;;;9.60;6.82;;;1.00;95.80;;;;;;5069960;28;20434;-95
2024/01/21 01:26:13;;;;;;;8.17;6.03;;;0.90;96.50;;;;;;5069986;28;20416;-92
2024/01/21 01:28:38;;;;;;;8.47;6.47;;;0.80;94.70;;;;;;5086532;28;20417;-92
2024/01/21 01:31:04;;;;;;;7.68;6.40;;;1.00;92.00;;;;;;5070710;28;20400;-94
2024/01/21 01:33:30;;;;;;;8.90;6.22;;;1.10;91.40;;;;;;5069627;28;20499;-94
2024/01/21 01:35:55;;;;;;;8.07;6.20;;;1.10;90.00;;;;;;5070440;28;20408;-92
2024/01/21 01:38:21;;;;;;;9.02;6.30;;;1.20;88.70;;;;;;5070069;28;20497;-92
2024/01/21 01:40:47;;;;;;;8.15;5.82;;;1.20;88.20;;;;;;5069756;28;20441;-93
2024/01/21 01:43:13;;;;;;;7.03;5.60;;;1.20;84.50;;;;;;5069190;28;20533;-93
2024/01/21 01:45:38;;;;;;;5.95;4.70;;;1.10;78.60;;;;;;5069641;28;20426;-93
2024/01/21 01:48:05;;;;;;;7.50;5.20;;;1.30;77.10;;;;;;5070589;28;20414;-90
2024/01/21 01:50:32;;;;;;;7.72;5.30;;;1.30;78.00;;;;;;5069541;28;20398;-92
2024/01/21 01:52:59;;;;;;;7.20;5.40;;;1.30;73.40;;;;;;5070428;28;20402;-89
2024/01/21 01:55:26;;;;;;;7.57;4.90;;;1.40;72.10;;;;;;5069452;28;20414;-94
2024/01/21 01:57:51;;;;;;;8.35;5.63;;;1.40;70.70;;;;;;5086697;28;20397;-93
2024/01/21 02:00:17;;;;;;;6.95;5.35;;;1.50;68.60;;;;;;5069480;28;20418;-93
2024/01/21 02:02:43;;;;;;;7.85;5.20;;;1.60;71.40;;;;;;5069986;28;20908;-93
2024/01/21 02:05:09;;;;;;;7.70;6.00;;;1.50;72.30;;;;;;5069844;28;20494;-92
2024/01/21 02:07:35;;;;;;;7.63;5.63;;;1.80;72.10;;;;;;5068967;28;20493;-90
2024/01/21 02:10:04;;;;;;;9.00;5.50;;;1.30;71.30;;;;;;5069982;28;21117;-89
2024/01/21 02:12:29;;;;;;;8.65;5.70;;;1.30;70.80;;;;;;5068827;28;20441;-93
2024/01/21 02:14:55;;;;;;;6.67;5.10;;;1.60;69.00;;;;;;5069856;28;20994;-91
2024/01/21 02:17:21;;;;;;;7.35;5.15;;;1.20;70.10;;;;;;5086161;28;20430;-92
2024/01/21 02:19:46;;;;;;;6.45;4.72;;;1.30;70.70;;;;;;5069980;28;20418;-93
2024/01/21 02:22:12;;;;;;;7.13;5.00;;;1.30;69.80;;;;;;5069394;28;20442;-94
2024/01/21 02:24:38;;;;;;;7.72;5.28;;;1.40;67.60;;;;;;5069038;28;20955;-89
2024/01/21 02:27:04;;;;;;;6.25;4.80;;;1.40;67.70;;;;;;5072522;28;20410;-91
2024/01/21 02:29:30;;;;;;;6.18;4.90;;;1.30;66.90;;;;;;5072750;28;20965;-91
2024/01/21 02:31:57;;;;;;;7.73;5.17;;;1.50;67.10;;;;;;5090336;28;20419;-92
2024/01/21 02:34:23;;;;;;;7.22;4.93;;;1.30;68.10;;;;;;5072532;28;20444;-92
2024/01/21 02:36:49;;;;;;;8.30;5.55;;;1.30;67.50;;;;;;5073251;28;20834;-91
2024/01/21 02:39:14;;;;;;;7.07;5.00;;;1.30;70.40;;;;;;5072651;28;20915;-91
2024/01/21 02:41:40;;;;;;;7.30;5.03;;;1.30;69.80;;;;;;5072986;28;20409;-92
2024/01/21 02:44:06;;;;;;;7.18;4.90;;;1.40;67.90;;;;;;5073135;28;20984;-91
2024/01/21 02:46:32;;;;;;;7.50;5.35;;;1.40;67.60;;;;;;5072153;28;20395;-93
2024/01/21 02:48:57;;;;;;;6.28;4.90;;;1.50;68.70;;;;;;5074105;28;20409;-91
2024/01/21 02:51:23;;;;;;;7.73;5.33;;;1.40;67.70;;;;;;5071819;28;20421;-93
2024/01/21 02:53:49;;;;;;;6.97;4.88;;;1.40;69.50;;;;;;5073293;28;20499;-94
2024/01/21 02:56:26;;;;;;;7.97;5.10;;;1.50;69.10;;;;;;5072370;28;20896;-89
2024/01/21 02:58:53;;;;;;;6.63;4.95;;;1.40;69.10;;;;;;5072663;28;20501;-91
2024/01/21 03:01:19;;;;;;;7.07;4.95;;;1.50;68.50;;;;;;5072661;28;20399;-91
2024/01/21 03:03:45;;;;;;;7.25;4.65;;;1.40;68.40;;;;;;5071620;28;20425;-95
2024/01/21 03:06:11;;;;;;;6.82;4.47;;;1.50;68.20;;;;;;5073571;28;20394;-93
2024/01/21 03:08:37;;;;;;;6.72;4.97;;;1.40;68.90;;;;;;5072179;28;20416;-90
2024/01/21 03:11:03;;;;;;;6.65;4.50;;;1.50;68.40;;;;;;5072683;28;20974;-92
2024/01/21 03:13:29;;;;;;;7.03;4.50;;;1.60;68.70;;;;;;5071960;28;20489;-91
2024/01/21 03:15:55;;;;;;;6.57;4.90;;;1.50;67.90;;;;;;5072505;28;20441;-94
2024/01/21 03:18:21;;;;;;;6.75;4.60;;;1.50;69.20;;;;;;5072814;28;20401;-92
2024/01/21 03:20:46;;;;;;;6.45;4.35;;;1.40;71.00;;;;;;5089093;28;20489;-91
2024/01/21 03:23:12;;;;;;;6.47;4.50;;;1.60;69.80;;;;;;5072775;28;20923;-93
2024/01/21 03:25:38;;;;;;;6.50;4.50;;;1.70;68.20;;;;;;5071672;28;20398;-91
2024/01/21 03:28:04;;;;;;;6.10;4.30;;;1.40;67.80;;;;;;5072582;28;20962;-92
2024/01/21 03:30:30;;;;;;;5.78;4.13;;;1.40;67.80;;;;;;5072113;28;20964;-93
2024/01/21 03:32:55;;;;;;;6.05;4.07;;;1.40;65.90;;;;;;5089008;28;20398;-91
2024/01/21 03:35:21;;;;;;;5.25;3.85;;;1.60;67.80;;;;;;5072099;28;20408;-92
2024/01/21 03:37:47;;;;;;;6.03;3.85;;;1.50;66.70;;;;;;5071279;28;20413;-91
2024/01/21 03:40:13;;;;;;;5.97;3.42;;;1.50;66.80;;;;;;5072182;28;20410;-94
2024/01/21 03:42:39;;;;;;;6.25;4.00;;;1.40;65.20;;;;;;5071184;28;20394;-93
2024/01/21 03:45:05;;;;;;;4.60;3.43;;;1.60;64.10;;;;;;5072002;28;20433;-92
2024/01/21 03:47:31;;;;;;;5.50;3.45;;;1.50;64.30;;;;;;5071227;28;20410;-94
2024/01/21 03:49:57;;;;;;;4.95;3.22;;;1.40;65.00;;;;;;5071992;28;20406;-91
2024/01/21 03:52:23;;;;;;;4.90;3.10;;;1.50;64.60;;;;;;5088017;28;20440;-89
2024/01/21 03:54:48;;;;;;;4.28;3.35;;;2.00;63.80;;;;;;5072015;28;20417;-93
2024/01/21 03:57:14;;;;;;;4.70;3.20;;;1.50;64.20;;;;;;5070697;28;20400;-94
2024/01/21 03:59:40;;;;;;;4.38;3.15;;;1.50;64.60;;;;;;5088297;28;20410;-93
2024/01/21 04:02:06;;;;;;;4.47;3.20;;;1.80;64.70;;;;;;5072181;28;20403;-91
2024/01/21 04:04:31;;;;;;;4.20;2.60;;;1.60;65.60;;;;;;5070555;28;20429;-93
2024/01/21 04:06:57;;;;;;;4.57;3.10;;;1.60;64.40;;;;;;5071839;28;20394;-92
2024/01/21 04:09:23;;;;;;;4.88;2.95;;;1.50;63.70;;;;;;5087339;28;20410;-92
2024/01/21 04:11:52;;;;;;;5.22;2.95;;;1.60;65.50;;;;;;5071311;28;20398;-94
2024/01/21 04:14:17;;;;;;;5.07;2.90;;;1.60;63.90;;;;;;5071031;28;20417;-94
2024/01/21 04:16:43;;;;;;;5.00;3.13;;;1.60;63.70;;;;;;5070837;28;20397;-93
2024/01/21 04:19:09;;;;;;;4.45;2.78;;;1.60;63.30;;;;;;5071411;28;20958;-92
2024/01/21 04:21:36;;;;;;;3.80;2.70;;;1.90;62.70;;;;;;5087395;28;20765;-94
2024/01/21 04:24:02;;;;;;;4.43;2.92;;;1.90;62.10;;;;;;5070882;28;20433;-93
2024/01/21 04:26:29;;;;;;;4.13;2.72;;;1.70;62.90;;;;;;5070149;28;20432;-93
2024/01/21 04:28:54;;;;;;;4.10;2.50;;;1.80;62.80;;;;;;5071075;28;20493;-92
2024/01/21 04:31:20;;;;;;;4.53;2.73;;;1.80;62.30;;;;;;5070134;28;20412;-92
2024/01/21 04:33:46;;;;;;;4.85;3.13;;;1.80;63.80;;;;;;5071121;28;20456;-94
2024/01/21 04:36:18;;;;;;;5.32;3.08;;;1.80;64.40;;;;;;5087638;28;21106;-91
2024/01/21 04:38:45;;;;;;;4.95;3.00;;;1.60;64.10;;;;;;5070447;28;20409;-92
2024/01/21 04:41:14;;;;;;;4.30;2.72;;;1.60;63.70;;;;;;5071115;28;20481;-93
2024/01/21 04:43:41;;;;;;;4.20;3.00;;;1.60;62.60;;;;;;5069387;28;20487;-94
2024/01/21 04:46:07;;;;;;;4.93;3.08;;;1.80;63.40;;;;;;5071610;28;20409;-94
2024/01/21 04:48:33;;;;;;;4.25;2.97;;;1.60;63.50;;;;;;5070559;28;20410;-95
2024/01/21 04:50:59;;;;;;;4.32;3.20;;;1.60;63.60;;;;;;5069681;28;20433;-94
2024/01/21 04:53:25;;;;;;;5.03;2.90;;;1.60;63.60;;;;;;5087657;28;20445;-89
2024/01/21 04:55:50;;;;;;;4.40;3.10;;;1.90;64.70;;;;;;5070027;28;20402;-92
2024/01/21 04:58:16;;;;;;;5.27;3.20;;;1.70;64.70;;;;;;5071327;28;20406;-93
2024/01/21 05:00:42;;;;;;;4.90;2.90;;;1.50;63.60;;;;;;5069808;28;20438;-94
2024/01/21 05:03:08;;;;;;;4.82;2.97;;;1.80;64.40;;;;;;5070919;28;20462;-89
2024/01/21 05:05:34;;;;;;;5.13;3.20;;;1.60;63.80;;;;;;5069970;28;20406;-92
2024/01/21 05:08:00;;;;;;;4.13;2.80;;;1.80;63.90;;;;;;5070990;28;20769;-92
2024/01/21 05:10:25;;;;;;;4.83;3.20;;;2.10;64.80;;;;;;5068177;28;20494;-92
2024/01/21 05:12:51;;;;;;;4.32;2.92;;;2.00;64.70;;;;;;5069913;28;20451;-92
2024/01/21 05:15:17;;;;;;;4.65;3.33;;;1.70;64.50;;;;;;5070341;28;20823;-95
2024/01/21 05:17:43;;;;;;;5.03;2.75;;;1.80;64.40;;;;;;5068991;28;20414;-92
2024/01/21 05:20:09;;;;;;;3.88;2.45;;;1.80;64.40;;;;;;5086643;28;20818;-91
2024/01/21 05:22:36;;;;;;;4.17;2.50;;;1.60;65.50;;;;;;5067960;28;20478;-93
2024/01/21 05:25:03;;;;;;;4.30;2.63;;;1.60;65.50;;;;;;5069259;28;20529;-94
2024/01/21 05:27:30;;;;;;;4.45;2.88;;;1.60;65.00;;;;;;5068502;28;20426;-90
2024/01/21 05:29:55;;;;;;;4.35;2.88;;;1.70;65.60;;;;;;5069671;28;20895;-94
2024/01/21 05:32:21;;;;;;;4.78;2.88;;;1.70;66.40;;;;;;5069820;28;20457;-94
2024/01/21 05:34:47;;;;;;;4.90;2.88;;;1.70;65.40;;;;;;5069688;28;20453;-90
2024/01/21 05:37:12;;;;;;;4.53;3.10;;;1.60;66.60;;;;;;5069913;28;20418;-94
2024/01/21 05:39:38;;;;;;;5.00;2.70;;;1.60;66.90;;;;;;5068761;28;20414;-92
2024/01/21 05:42:06;;;;;;;4.30;2.65;;;1.60;66.80;;;;;;5070476;28;20442;-94
2024/01/21 05:44:32;;;;;;;4.35;2.80;;;1.60;67.00;;;;;;5069105;28;20437;-90
2024/01/21 05:46:58;;;;;;;4.50;2.88;;;1.60;67.50;;;;;;5070236;28;20402;-89
2024/01/21 05:49:24;;;;;;;3.83;2.70;;;1.70;67.50;;;;;;5069754;28;20402;-94
2024/01/21 05:51:50;;;;;;;3.77;2.70;;;1.70;66.40;;;;;;5086781;28;20405;-93
2024/01/21 05:54:19;;;;;;;4.22;2.75;;;1.60;67.40;;;;;;5069962;28;20440;-92
2024/01/21 05:56:45;;;;;;;4.25;2.83;;;1.60;67.70;;;;;;5069399;28;20409;-94
2024/01/21 05:59:13;;;;;;;4.75;2.60;;;1.60;68.60;;;;;;5070473;28;20474;-93
2024/01/21 06:01:39;;;;;;;4.22;2.85;;;1.80;68.10;;;;;;5071651;28;20824;-94
2024/01/21 06:04:05;;;;;;;5.07;2.90;;;1.70;67.20;;;;;;5073575;28;20429;-92
2024/01/21 06:06:30;;;;;;;4.28;2.95;;;1.60;67.50;;;;;;5073474;28;20402;-93
2024/01/21 06:08:56;;;;;;;4.20;2.93;;;1.60;67.50;;;;;;5073623;28;20401;-94
2024/01/21 06:11:22;;;;;;;4.50;2.90;;;1.60;65.50;;;;;;5073540;28;20489;-93
2024/01/21 06:13:47;;;;;;;4.25;2.75;;;1.60;67.10;;;;;;5072909;28;20402;-92
2024/01/21 06:16:16;;;;;;;4.55;2.78;;;1.70;67.30;;;;;;5073790;28;20397;-93
2024/01/21 06:18:42;;;;;;;4.63;2.83;;;1.70;65.90;;;;;;5072576;28;20471;-93
2024/01/21 06:21:08;;;;;;;3.85;2.65;;;1.80;66.90;;;;;;5073770;28;20402;-92
2024/01/21 06:23:34;;;;;;;4.20;2.60;;;1.70;68.70;;;;;;5089064;28;20418;-93
2024/01/21 06:25:59;;;;;;;4.00;2.87;;;1.80;67.80;;;;;;5073180;28;20452;-94
2024/01/21 06:28:25;;;;;;;3.50;2.40;;;1.90;69.90;;;;;;5073097;28;20904;-90
2024/01/21 06:30:51;;;;;;;4.60;3.00;;;1.70;68.20;;;;;;5073198;28;20532;-92
2024/01/21 06:33:17;;;;;;;4.70;2.53;;;1.70;66.20;;;;;;5073338;28;20520;-90
2024/01/21 06:35:43;;;;;;;4.07;2.85;;;1.80;67.30;;;;;;5072376;28;20433;-91
2024/01/21 06:38:08;;;;;;;4.00;2.70;;;1.70;69.10;;;;;;5073663;28;20510;-93
2024/01/21 06:40:34;;;;;;;4.22;2.88;;;1.80;68.30;;;;;;5072323;28;20831;-93
2024/01/21 06:43:00;;;;;;;4.25;2.90;;;1.70;67.60;;;;;;5073392;28;20447;-93
2024/01/21 06:45:26;;;;;;;4.27;3.00;;;1.70;67.80;;;;;;5072398;28;20410;-92
2024/01/21 06:47:51;;;;;;;4.45;2.83;;;1.70;68.00;;;;;;5073630;28;20511;-93
2024/01/21 06:50:17;;;;;;;4.97;3.27;;;1.80;67.20;;;;;;5072870;28;20406;-92
2024/01/21 06:52:43;;;;;;;4.23;2.70;;;1.70;68.70;;;;;;5072540;28;20467;-92
2024/01/21 06:55:09;;;;;;;4.38;2.83;;;1.60;68.60;;;;;;5073310;28;20406;-90
2024/01/21 06:57:34;;;;;;;4.95;3.47;;;1.70;69.10;;;;;;5072259;28;20441;-91
2024/01/21 07:00:02;;;;;;;4.57;2.97;;;1.70;69.30;;;;;;5073421;28;20422;-93
2024/01/21 07:02:27;;;;;;;5.57;3.08;;;2.00;71.30;;;;;;5087702;28;20432;-94
2024/01/21 07:04:53;;;;;;;5.65;3.13;;;1.70;70.30;;;;;;5076533;28;20464;-91
2024/01/21 07:07:19;;;;;;;4.57;3.00;;;2.20;73.60;;;;;;5080247;28;20471;-93
2024/01/21 07:09:44;;;;;;;4.80;3.25;;;1.80;72.90;;;;;;5073036;28;20888;-94
2024/01/21 07:12:13;;;;;;;5.00;3.22;;;1.80;72.20;;;;;;5089055;28;20417;-94
2024/01/21 07:14:39;;;;;;;4.60;3.07;;;1.70;72.60;;;;;;5071768;28;20963;-92
2024/01/21 07:17:04;;;;;;;4.57;3.10;;;1.70;71.60;;;;;;5073126;28;20471;-93
2024/01/21 07:19:30;;;;;;;5.35;3.58;;;1.80;71.80;;;;;;5071721;28;20905;-92
2024/01/21 07:21:56;;;;;;;6.57;3.27;;;1.80;71.90;;;;;;5072493;28;20927;-89
2024/01/21 07:24:21;;;;;;;4.83;3.13;;;1.70;71.40;;;;;;5088425;28;20758;-90
2024/01/21 07:26:47;;;;;;;5.15;3.50;;;1.80;70.70;;;;;;5072554;28;20920;-91
2024/01/21 07:29:15;;;;;;;4.80;3.15;;;1.90;71.50;;;;;;5072281;28;20409;-93
2024/01/21 07:31:41;;;;;;;5.47;3.63;;;2.20;69.80;;;;;;5072030;28;20402;-94
2024/01/21 07:34:09;;;;;;;5.00;3.00;;;1.90;69.20;;;;;;5073013;28;20838;-93
2024/01/21 07:36:35;;;;;;;6.28;3.40;;;2.00;69.30;;;;;;5088492;28;20451;-95
2024/01/21 07:39:03;;;;;;;4.18;3.10;;;2.00;69.50;;;;;;5072997;28;20569;-93
2024/01/21 07:41:29;;;;;;;6.88;3.40;;;1.90;69.30;;;;;;5088337;28;20398;-94
2024/01/21 07:43:54;;;;;;;6.37;3.90;;;2.10;69.80;;;;;;5089413;28;20494;-94
2024/01/21 07:46:20;;;;;;;6.05;3.70;;;2.10;70.90;;;;;;5072100;28;20395;-94
2024/01/21 07:48:46;;;;;;;7.18;4.03;;;2.10;73.10;;;;;;5072401;28;20405;-94
2024/01/21 07:51:11;;;;;;;6.00;4.00;;;2.10;71.00;;;;;;5072826;28;20409;-95
2024/01/21 07:53:37;;;;;;;5.23;3.83;;;2.20;72.20;;;;;;5071724;28;20421;-94
2024/01/21 07:56:03;;;;;;;6.20;4.20;;;2.10;72.00;;;;;;5072515;28;20418;-92
2024/01/21 07:58:29;;;;;;;5.43;4.00;;;2.10;75.50;;;;;;5071179;28;20954;-92
2024/01/21 08:00:54;;;;;;;6.70;3.83;;;2.20;73.90;;;;;;5072570;28;20489;-95
2024/01/21 08:03:20;;;;;;;6.53;4.40;;;2.10;72.80;;;;;;5071471;28;20426;-92
2024/01/21 08:05:46;;;;;;;6.73;4.30;;;2.30;76.40;;;;;;5071824;28;20398;-91
2024/01/21 08:08:12;;;;;;;7.10;3.93;;;2.20;74.20;;;;;;5071969;28;20781;-94
2024/01/21 08:10:37;;;;;;;6.57;3.83;;;2.20;75.00;;;;;;5054819;28;20402;-93
2024/01/21 08:13:03;;;;;;;7.27;4.03;;;2.20;75.60;;;;;;5072113;28;20539;-94
2024/01/21 08:15:29;;;;;;;7.72;4.70;;;2.20;77.70;;;;;;5070979;28;20531;-94
2024/01/21 08:17:54;;;;;;;6.15;4.20;;;2.20;76.80;;;;;;5072310;28;20417;-93
2024/01/21 08:20:20;;;;;;;6.97;4.25;;;2.20;79.00;;;;;;5070467;28;20399;-93
2024/01/21 08:22:47;;;;;;;6.23;4.33;;;2.30;78.30;;;;;;5070862;28;20815;-92
2024/01/21 08:25:15;;;;;;;6.72;4.45;;;2.50;81.80;;;;;;5070890;28;20432;-93
2024/01/21 08:27:41;;;;;;;7.72;4.82;;;2.20;80.40;;;;;;5070923;28;20432;-94
2024/01/21 08:30:08;;;;;;;7.35;4.50;;;2.30;80.70;;;;;;5071421;28;20529;-95
2024/01/21 08:32:34;;;;;;;6.43;4.45;;;2.20;83.50;;;;;;5070707;28;20427;-95
2024/01/21 08:35:00;;;;;;;6.97;4.82;;;2.20;89.50;;;;;;5071509;28;20398;-94
2024/01/21 08:37:26;;;;;;;7.63;5.22;;;2.30;90.30;;;;;;5070645;28;20824;-91
2024/01/21 08:39:51;;;;;;;7.57;5.30;;;2.30;95.40;;;;;;5053455;28;20432;-96
2024/01/21 08:42:19;;;;;;;6.33;4.60;;;2.30;99.90;;;;;;5074704;28;20940;-93
2024/01/21 08:44:45;;;;;;;7.35;5.00;;;2.10;99.90;;;;;;5070643;28;20421;-95
2024/01/21 08:47:11;;;;;;;7.28;5.28;;;2.30;99.90;;;;;;5070220;28;20395;-94
2024/01/21 08:49:36;;;;;;;7.95;5.63;;;2.10;99.90;;;;;;5087156;28;20451;-94
2024/01/21 08:52:02;;;;;;;8.13;5.10;;;2.20;99.90;;;;;;5070760;28;20859;-95
2024/01/21 08:54:28;;;;;;;6.90;5.20;;;2.10;99.90;;;;;;5069081;28;20402;-96
2024/01/21 08:56:54;;;;;;;8.52;5.72;;;2.20;99.90;;;;;;5054824;28;20410;-94
2024/01/21 08:59:19;;;;;;;7.67;5.10;;;2.10;99.90;;;;;;5054082;28;20409;-95
2024/01/21 09:01:45;;;;;;;7.67;5.30;;;2.10;99.90;;;;;;5069758;28;20398;-95
2024/01/21 09:04:11;;;;;;;7.03;5.40;;;2.00;99.90;;;;;;5069986;28;20507;-95
2024/01/21 09:06:41;;;;;;;7.25;4.82;;;2.10;99.90;;;;;;5071566;28;20410;-96
2024/01/21 09:09:13;;;;;;;7.60;5.47;;;2.20;99.90;;;;;;5070308;28;20428;-94
2024/01/21 09:11:40;;;;;;;7.10;4.95;;;2.10;99.90;;;;;;5070030;28;20967;-91
2024/01/21 09:14:06;;;;;;;8.75;6.15;;;2.20;99.90;;;;;;5070861;28;20390;-94
2024/01/21 09:16:35;;;;;;;7.78;5.90;;;2.40;99.90;;;;;;5072094;28;20927;-96
2024/01/21 09:19:12;;;;;;;8.57;6.30;;;2.30;99.90;;;;;;5074268;28;20750;-96
2024/01/21 09:21:43;;;;;;;7.65;5.68;;;2.30;99.90;;;;;;5059258;28;20394;-96
2024/01/21 09:24:09;;;;;;;7.15;5.47;;;2.30;99.90;;;;;;5073387;28;20829;-96
2024/01/21 09:26:35;;;;;;;7.50;5.05;;;2.60;99.90;;;;;;5054743;28;20405;-94
2024/01/21 09:29:00;;;;;;;6.93;5.47;;;2.50;99.90;;;;;;5073386;28;20444;-94
2024/01/21 09:31:26;;;;;;;7.72;5.60;;;2.50;99.90;;;;;;5076750;28;20410;-96
2024/01/21 09:33:55;;;;;;;6.97;5.25;;;2.60;99.90;;;;;;5086091;28;20474;-90
2024/01/21 09:36:23;;;;;;;6.70;4.97;;;2.80;99.90;;;;;;5076847;28;20410;-95
2024/01/21 09:38:55;;;;;;;6.72;4.97;;;2.90;99.90;;;;;;5090175;28;20470;-96
2024/01/21 09:41:49;;;;;;;7.75;4.88;;;2.80;99.70;;;;;;5073034;28;21033;-96
2024/01/21 09:44:28;;;;;;;6.97;5.45;;;2.90;98.30;;;;;;4976405;28;20472;-94
2024/01/21 09:46:58;;;;;;;8.03;5.67;;;2.90;99.90;;;;;;5059389;28;20498;-92
2024/01/21 09:49:24;;;;;;;7.57;5.18;;;3.00;99.90;;;;;;5090046;28;20415;-96
2024/01/21 09:51:56;;;;;;;7.20;5.55;;;2.90;99.90;;;;;;5076927;28;20403;-95
2024/01/21 09:54:23;;;;;;;8.43;5.90;;;2.90;99.90;;;;;;5059851;28;20405;-92
2024/01/21 09:57:00;;;;;;;5.85;5.05;;;3.30;99.90;;;;;;5074848;28;20412;-95
2024/01/21 09:59:27;;;;;;;7.80;6.07;;;3.00;99.90;;;;;;5076686;28;20409;-95
2024/01/21 10:01:52;;;;;;;6.70;5.13;;;3.20;99.90;;;;;;5070993;28;20916;-93
2024/01/21 10:04:27;;;;;;;7.90;5.97;;;3.40;99.90;;;;;;5072331;28;20426;-95
2024/01/21 10:06:55;;;;;;;9.05;5.90;;;3.30;99.90;;;;;;5074894;28;20417;-93
2024/01/21 10:09:24;;;;;;;7.53;5.75;;;3.50;99.90;;;;;;5073062;28;21143;-94
2024/01/21 10:11:59;;;;;;;7.88;5.90;;;3.40;99.90;;;;;;5087385;28;20413;-94
2024/01/21 10:14:26;;;;;;;7.70;5.72;;;3.50;99.90;;;;;;5071268;28;20916;-94
2024/01/21 10:16:51;;;;;;;8.88;5.72;;;3.40;99.90;;;;;;5091979;28;20517;-96
2024/01/21 10:19:28;;;;;;;7.18;5.95;;;3.40;99.90;;;;;;5090741;28;20392;-94
2024/01/21 10:22:08;;;;;;;8.05;6.05;;;3.40;99.90;;;;;;5091252;28;20828;-92
2024/01/21 10:24:37;;;;;;;8.55;6.35;;;3.60;99.90;;;;;;5049860;28;20431;-94
2024/01/21 10:27:04;;;;;;;9.05;6.35;;;3.50;99.90;;;;;;5051230;28;20487;-93
2024/01/21 10:29:32;;;;;;;10.25;7.30;;;3.50;99.90;;;;;;5069199;28;20419;-94
2024/01/21 10:31:57;;;;;;;9.52;6.88;;;3.70;99.90;;;;;;5051823;28;20392;-92
2024/01/21 10:34:23;;;;;;;8.57;6.38;;;3.50;99.90;;;;;;5050210;28;20404;-91
2024/01/21 10:36:52;;;;;;;10.47;7.20;;;3.60;99.90;;;;;;5066211;28;20887;-95
2024/01/21 10:39:20;;;;;;;8.95;6.25;;;3.90;99.90;;;;;;5050407;28;20443;-94
2024/01/21 10:41:46;;;;;;;9.25;6.70;;;3.70;99.90;;;;;;5032386;28;20407;-96
2024/01/21 10:44:13;;;;;;;10.80;7.40;;;3.80;99.90;;;;;;5050696;28;20518;-92
2024/01/21 10:46:41;;;;;;;11.00;7.60;;;3.80;99.90;;;;;;5053972;28;20417;-95
2024/01/21 10:49:10;;;;;;;9.93;6.68;;;4.50;99.90;;;;;;5073850;28;20430;-94
2024/01/21 10:51:37;;;;;;;11.18;7.50;;;3.90;99.90;;;;;;5073262;28;20394;-95
2024/01/21 10:54:04;;;;;;;10.00;7.10;;;3.90;99.90;;;;;;5072622;28;20402;-94
2024/01/21 10:56:31;;;;;;;10.70;7.43;;;4.20;99.90;;;;;;5090002;28;20402;-90
2024/01/21 10:58:57;;;;;;;10.50;7.53;;;3.80;99.90;;;;;;5072530;28;20404;-88
2024/01/21 11:01:24;;;;;;;10.80;7.57;;;4.00;99.90;;;;;;5073190;28;20503;-91
2024/01/21 11:04:02;;;;;;;9.63;7.28;;;4.10;99.90;;;;;;5072638;28;20895;-92
2024/01/21 11:06:27;;;;;;;12.23;7.88;;;4.10;99.90;;;;;;5090268;28;20478;-93
2024/01/21 11:08:54;;;;;;;9.68;7.60;;;4.20;99.90;;;;;;5072432;28;20489;-92
2024/01/21 11:11:22;;;;;;;11.45;8.20;;;4.20;99.90;;;;;;5073340;28;20394;-93
2024/01/21 11:13:52;;;;;;;13.23;8.00;;;4.20;99.90;;;;;;5073444;28;20491;-93
2024/01/21 11:16:28;;;;;;;11.23;8.10;;;4.30;99.90;;;;;;5072666;28;21068;-93
2024/01/21 11:18:56;;;;;;;13.02;8.05;;;4.10;99.90;;;;;;5073290;28;20407;-93
2024/01/21 11:21:27;;;;;;;10.30;7.93;;;4.30;99.90;;;;;;5072149;28;20832;-94
2024/01/21 11:24:03;;;;;;;11.20;7.82;;;4.10;99.90;;;;;;5072147;28;20426;-93
2024/01/21 11:26:35;;;;;;;11.90;7.95;;;4.30;99.90;;;;;;5072001;28;20411;-91
2024/01/21 11:29:21;;;;;;;11.80;8.63;;;4.30;99.90;;;;;;5089068;28;20904;-90
2024/01/21 11:31:51;;;;;;;12.57;8.15;;;4.60;99.90;;;;;;5073321;28;20765;-90
2024/01/21 11:34:18;;;;;;;11.70;8.05;;;4.30;99.90;;;;;;5071702;28;20463;-93
2024/01/21 11:36:44;;;;;;;12.13;8.38;;;4.20;99.90;;;;;;5072484;28;20398;-95
2024/01/21 11:39:10;;;;;;;12.02;8.40;;;4.90;99.90;;;;;;5072033;28;20413;-91
2024/01/21 11:41:46;;;;;;;12.82;8.40;;;4.30;99.90;;;;;;5088860;28;20402;-90
2024/01/21 11:44:22;;;;;;;11.32;8.32;;;4.30;99.90;;;;;;5089034;28;21001;-92
2024/01/21 11:46:48;;;;;;;12.33;8.43;;;4.30;99.90;;;;;;5071614;28;20504;-93
2024/01/21 11:49:14;;;;;;;12.03;8.90;;;4.20;99.90;;;;;;5072625;28;20920;-93
2024/01/21 11:51:40;;;;;;;11.68;8.50;;;4.10;99.90;;;;;;5071087;28;20468;-93
2024/01/21 11:54:06;;;;;;;11.68;8.63;;;4.30;99.90;;;;;;5072486;28;20425;-92
2024/01/21 11:56:32;;;;;;;13.23;9.32;;;4.40;99.90;;;;;;5060930;28;20520;-95
2024/01/21 11:58:58;;;;;;;12.45;8.85;;;4.40;99.90;;;;;;5071247;28;20405;-92
2024/01/21 12:01:26;;;;;;;13.13;8.70;;;4.30;99.90;;;;;;5071419;28;20408;-93
2024/01/21 12:03:55;;;;;;;11.43;8.60;;;4.40;99.90;;;;;;5069866;28;20488;-92
2024/01/21 12:06:21;;;;;;;12.50;8.80;;;4.40;99.90;;;;;;5071907;28;20405;-92
2024/01/21 12:08:47;;;;;;;12.07;8.33;;;4.20;99.90;;;;;;5070508;28;20406;-94
2024/01/21 12:11:13;;;;;;;14.13;9.60;;;4.30;99.90;;;;;;5071046;28;20527;-92
2024/01/21 12:13:40;;;;;;;12.38;8.73;;;4.30;99.90;;;;;;5071172;28;20892;-91
2024/01/21 12:16:09;;;;;;;12.03;9.03;;;4.30;99.90;;;;;;5072035;28;20804;-96
2024/01/21 12:18:42;;;;;;;14.40;9.68;;;4.30;99.90;;;;;;5050989;28;20895;-95
2024/01/21 12:21:11;;;;;;;13.65;9.52;;;4.30;99.90;;;;;;5067346;28;20407;-93
2024/01/21 12:23:43;;;;;;;13.95;9.00;;;4.50;99.90;;;;;;5067918;28;20424;-92
2024/01/21 12:26:13;;;;;;;14.20;9.90;;;4.30;99.90;;;;;;5066406;28;20392;-92
2024/01/21 12:28:53;;;;;;;13.35;9.55;;;4.40;99.90;;;;;;5085173;28;20409;-93
2024/01/21 12:31:20;;;;;;;13.20;9.65;;;4.60;99.90;;;;;;5050650;28;20404;-91
2024/01/21 12:33:47;;;;;;;13.00;9.88;;;4.50;99.90;;;;;;5066980;28;20498;-91
2024/01/21 12:36:13;;;;;;;13.43;9.60;;;4.50;99.90;;;;;;5051754;28;20400;-91
2024/01/21 12:38:41;;;;;;;12.52;9.05;;;4.50;99.90;;;;;;5050163;28;20491;-87
2024/01/21 12:41:07;;;;;;;14.43;9.35;;;4.60;99.90;;;;;;5050693;28;20419;-93
2024/01/21 12:43:33;;;;;;;13.33;9.80;;;4.40;99.90;;;;;;5066606;28;20443;-93
2024/01/21 12:45:59;;;;;;;13.15;9.57;;;4.50;99.90;;;;;;5067579;28;20388;-93
2024/01/21 12:48:25;;;;;;;13.77;10.35;;;4.60;99.90;;;;;;5049667;28;20899;-91
2024/01/21 12:50:51;;;;;;;12.98;10.05;;;4.60;99.90;;;;;;5067285;28;20415;-92
2024/01/21 12:53:16;;;;;;;14.10;10.65;;;4.50;99.90;;;;;;5067385;28;20502;-93